Latest Weather Observations for Yarrawonga

IDN60801

Issued at 11:03 pm EST Tuesday 28 July 2015 (issued every 30 minutes, with the page automatically refreshed every 10 minutes)

About weather observations | Map of weather stations | Latest weather observations for NSW | Other Formats
Station Details ID: 081124 Name: YARRAWONGA Lat: -36.03 Lon: 146.03 Height: 128.9 m
Data from the previous 72 hours. | See also: Recent months at Yarrawonga
Date/Time
EST
Temp
°C
App
Temp
°C
Dew
Point
Rel
Hum
%
Delta-T
°C
Wind Press
QNH
hPa
Press
MSL
hPa
Rain
since 9 am
mm
Dir
 
Spd
km/h
Gust
km/h
Spd
kts
Gust
kts
28/11:00pm 2.2 0.5 1.6 96 0.2 CALM 0 0 0 0 1034.4 1034.7 0.0
28/10:30pm 2.3 0.6 1.6 95 0.3 CALM 0 0 0 0 1034.5 1034.8 0.0
28/10:00pm 3.4 1.5 2.8 96 0.2 W 2 4 1 2 1034.5 1034.8 0.0
28/09:30pm 2.8 -0.2 2.1 95 0.3 W 7 7 4 4 1034.8 1035.1 0.0
28/09:00pm 4.0 1.8 3.3 95 0.3 WSW 4 4 2 2 1034.6 1034.9 0.0
28/08:30pm 4.4 2.3 3.7 95 0.3 WSW 4 4 2 2 1034.7 1035.0 0.0
28/08:00pm 4.3 2.1 3.4 94 0.4 WSW 4 4 2 2 1034.6 1034.9 0.0
28/07:30pm 4.5 2.0 3.5 93 0.4 SW 6 6 3 3 1034.5 1034.8 0.0
28/07:00pm 5.8 3.8 4.4 91 0.6 SW 4 6 2 3 1034.3 1034.6 0.0
28/06:30pm 6.9 5.1 5.2 89 0.8 SSW 4 4 2 2 1034.1 1034.4 0.0
28/06:00pm 7.7 5.9 5.5 86 1.0 SSW 4 4 2 2 1033.8 1034.1 0.0
28/05:30pm 8.6 6.4 5.5 81 1.4 SW 6 7 3 4 1033.8 1034.1 0.0
28/05:00pm 10.6 8.4 6.4 75 2.0 SW 7 9 4 5 1033.6 1033.9 0.0
28/04:30pm 12.1 9.6 6.6 69 2.6 SW 9 13 5 7 1033.6 1033.9 0.0
28/04:00pm 12.2 10.3 6.5 68 2.7 SSW 6 9 3 5 1033.7 1034.0 0.0
28/03:30pm 11.8 9.4 6.9 72 2.4 SW 9 13 5 7 1033.8 1034.1 0.0
28/03:00pm 13.2 10.3 6.3 63 3.3 SW 11 15 6 8 1033.7 1034.0 0.0
28/02:30pm 13.4 11.0 7.0 65 3.1 SSW 9 17 5 9 1033.7 1034.0 0.0
28/02:00pm 12.2 9.9 7.3 72 2.4 SW 9 13 5 7 1033.9 1034.2 0.0
28/01:30pm 11.7 9.1 6.2 69 2.6 SSW 9 13 5 7 1034.0 1034.3 0.0
28/01:00pm 11.8 9.3 6.5 70 2.5 SW 9 13 5 7 1034.3 1034.6 0.0
28/12:30pm 12.0 9.9 6.7 70 2.5 SSW 7 13 4 7 1034.9 1035.2 0.0
28/12:00pm 11.7 9.2 6.6 71 2.4 SW 9 15 5 8 1035.5 1035.8 0.0
28/11:30am 11.1 8.2 6.6 74 2.1 SW 11 15 6 8 1036.0 1036.3 0.0
28/11:00am 9.8 8.3 6.9 82 1.4 SW 4 7 2 4 1036.3 1036.6 0.0
28/10:30am 8.3 6.3 6.1 86 1.0 WSW 6 7 3 4 1036.4 1036.7 0.0
28/10:00am 7.3 5.5 5.3 87 0.9 W 4 6 2 3 1036.1 1036.4 0.0
28/09:30am 6.1 3.7 4.4 89 0.7 WNW 6 11 3 6 1036.0 1036.3 0.0
28/09:00am 5.5 3.1 4.5 93 0.4 NNW 6 7 3 4 1035.8 1036.1 0.0
28/08:30am 3.3 0.6 2.7 96 0.2 N 6 6 3 3 1035.5 1035.8 0.0
28/08:00am 2.4 -0.1 1.8 96 0.2 NNW 4 6 2 3 1035.2 1035.5 0.0
28/07:30am 2.5 0.1 2.1 97 0.2 N 4 6 2 3 1035.0 1035.3 0.0
28/07:00am 2.4 0.3 2.0 97 0.2 N 2 6 1 3 1034.6 1034.9 0.0
28/06:30am 1.4 -0.5 0.8 96 0.2 CALM 0 0 0 0 1034.4 1034.7 0.0
28/06:00am 0.5 -2.3 -0.2 95 0.2 ESE 4 4 2 2 1034.1 1034.4 0.0
28/05:30am 0.4 -1.7 -0.5 94 0.3 CALM 0 0 0 0 1033.7 1034.0 0.0
28/05:00am 1.6 -1.0 0.9 95 0.3 WSW 4 4 2 2 1033.4 1033.7 0.0
28/04:30am 1.6 -1.6 0.7 94 0.3 SW 7 7 4 4 1033.4 1033.7 0.0
28/04:00am 1.5 -1.2 0.3 92 0.4 WSW 4 9 2 5 1033.2 1033.5 0.0
28/03:30am 3.7 0.4 2.5 92 0.5 W 9 11 5 6 1033.0 1033.3 0.0
28/03:00am 2.4 -0.7 1.5 94 0.3 WSW 7 9 4 5 1033.0 1033.3 0.0
28/02:30am 2.4 0.3 1.5 94 0.3 WSW 2 2 1 1 1032.9 1033.2 0.0
28/02:00am 2.3 -0.7 1.1 92 0.5 W 6 7 3 4 1032.7 1033.0 0.0
28/01:30am 2.9 -0.2 1.4 90 0.6 W 7 9 4 5 1032.5 1032.8 0.0
28/01:00am 4.3 0.7 2.7 89 0.6 W 11 13 6 7 1032.4 1032.7 0.0
28/12:30am 4.3 0.3 2.8 90 0.6 W 13 15 7 8 1032.4 1032.7 0.0
28/12:00am 4.1 1.2 2.8 91 0.5 W 7 11 4 6 1032.4 1032.7 0.0
 
Date/Time
EST
Temp
°C
App
Temp
°C
Dew
Point
Rel
Hum
%
Delta-T
°C
Wind Press
QNH
hPa
Press
MSL
hPa
Rain
since 9 am
mm
Dir
 
Spd
km/h
Gust
km/h
Spd
kts
Gust
kts
27/11:30pm 4.4 1.2 2.8 89 0.7 W 9 9 5 5 1032.5 1032.8 0.0
27/11:00pm 5.1 1.6 3.3 88 0.7 W 11 13 6 7 1032.4 1032.7 0.0
27/10:30pm 5.7 2.2 3.4 85 1.0 W 11 13 6 7 1032.3 1032.6 0.0
27/10:00pm 6.9 2.7 3.7 80 1.4 W 15 20 8 11 1032.2 1032.5 0.0
27/09:30pm 7.3 3.5 3.7 78 1.5 W 13 19 7 10 1032.1 1032.4 0.0
27/09:00pm 7.5 3.7 3.9 78 1.5 W 13 17 7 9 1032.0 1032.3 0.0
27/08:30pm 6.1 3.3 3.3 82 1.2 W 7 11 4 6 1032.0 1032.3 0.0
27/08:00pm 7.5 4.8 3.7 77 1.6 WNW 7 11 4 6 1031.8 1032.1 0.0
27/07:30pm 7.4 4.3 3.6 77 1.6 WNW 9 15 5 8 1031.7 1032.0 0.0
27/07:00pm 7.4 4.7 3.6 77 1.6 WNW 7 9 4 5 1031.4 1031.6 0.0
27/06:30pm 7.4 4.8 4.0 79 1.5 W 7 9 4 5 1031.3 1031.5 0.0
27/06:00pm 7.6 5.0 4.0 78 1.5 WNW 7 9 4 5 1030.7 1031.0 0.0
27/05:30pm 8.7 5.7 4.3 74 1.9 W 9 13 5 7 1030.5 1030.8 0.0
27/05:00pm 9.2 5.1 4.4 72 2.1 WSW 15 20 8 11 1030.2 1030.5 0.0
27/04:30pm 9.6 4.7 4.0 68 2.5 WSW 19 24 10 13 1030.1 1030.4 0.0
27/04:00pm 10.1 5.7 4.7 69 2.4 W 17 22 9 12 1029.8 1030.1 0.0
27/03:30pm 10.1 5.5 3.6 64 2.9 W 17 22 9 12 1029.6 1029.9 0.0
27/03:00pm 10.0 5.1 4.0 66 2.6 WSW 19 26 10 14 1029.5 1029.8 0.0
27/02:30pm 9.9 4.8 3.9 66 2.7 WSW 20 28 11 15 1029.3 1029.6 0.0
27/02:00pm 9.9 5.1 4.5 69 2.4 WSW 19 24 10 13 1029.2 1029.5 0.0
27/01:30pm 10.1 4.6 3.8 65 2.8 WSW 22 33 12 18 1029.3 1029.6 0.0
27/01:00pm 9.7 3.3 3.4 65 2.7 WSW 26 32 14 17 1029.2 1029.5 0.0
27/12:30pm 10.4 4.2 4.3 66 2.7 WSW 26 32 14 17 1029.5 1029.8 0.0
27/12:00pm 9.4 4.4 4.4 71 2.2 W 20 30 11 16 1029.7 1030.0 0.0
27/11:30am 8.7 2.8 3.9 72 2.1 W 24 30 13 16 1030.0 1030.3 0.0
27/11:00am 7.8 2.3 3.8 76 1.7 W 22 30 12 16 1030.1 1030.4 0.0
27/10:30am 7.1 1.9 3.7 79 1.5 WSW 20 28 11 15 1030.1 1030.4 0.0
27/10:00am 5.6 -0.1 2.9 83 1.1 WSW 22 30 12 16 1029.9 1030.2 0.0
27/09:30am 4.6 -0.8 2.5 86 0.9 W 20 24 11 13 1029.6 1029.9 0.0
27/09:00am 3.4 -1.1 2.1 91 0.5 W 15 20 8 11 1029.4 1029.7 0.0
27/08:30am 2.2 -2.5 1.2 93 0.4 W 15 19 8 10 1029.1 1029.4 0.0
27/08:00am 1.4 -2.6 0.7 95 0.3 W 11 17 6 9 1028.7 1029.0 0.0
27/07:30am 0.9 -3.5 0.2 95 0.3 W 13 15 7 8 1028.4 1028.7 0.0
27/07:00am 0.2 -3.2 -0.5 95 0.3 W 7 9 4 5 1027.9 1028.2 0.0
27/06:30am 0.3 -3.1 -0.5 94 0.3 SW 7 9 4 5 1027.4 1027.7 0.0
27/06:00am 1.1 -3.7 0.2 94 0.3 W 15 19 8 10 1026.9 1027.2 0.0
27/05:30am 0.9 -3.6 0.0 94 0.3 W 13 15 7 8 1026.5 1026.8 0.0
27/05:00am 1.1 -3.3 0.1 93 0.4 W 13 17 7 9 1026.1 1026.4 0.0
27/04:30am 1.2 -2.8 0.2 93 0.4 W 11 15 6 8 1025.8 1026.1 0.0
27/04:00am 1.3 -3.1 0.3 93 0.4 W 13 15 7 8 1025.5 1025.8 0.0
27/03:30am 1.6 -2.4 0.4 92 0.4 W 11 13 6 7 1025.3 1025.6 0.0
27/03:00am 1.8 -2.2 0.5 91 0.5 W 11 13 6 7 1025.0 1025.2 0.0
27/02:30am 2.1 -1.9 0.8 91 0.5 W 11 15 6 8 1025.0 1025.2 0.0
27/02:00am 2.4 -1.5 0.9 90 0.6 W 11 15 6 8 1025.0 1025.2 0.0
27/01:30am 2.8 -1.1 1.2 89 0.6 W 11 13 6 7 1024.8 1025.0 0.0
27/01:00am 3.0 -1.3 1.2 88 0.7 W 13 17 7 9 1024.7 1024.9 0.0
27/12:30am 3.3 -1.7 1.3 87 0.8 W 17 22 9 12 1024.6 1024.8 0.0
27/12:00am 3.4 -0.9 1.3 86 0.8 W 13 17 7 9 1024.5 1024.7 0.0
 
Date/Time
EST
Temp
°C
App
Temp
°C
Dew
Point
Rel
Hum
%
Delta-T
°C
Wind Press
QNH
hPa
Press
MSL
hPa
Rain
since 9 am
mm
Dir
 
Spd
km/h
Gust
km/h
Spd
kts
Gust
kts
26/11:30pm 4.4 -0.2 1.6 82 1.1 W 15 20 8 11 1024.2 1024.4 0.0
26/11:00pm 4.9 -0.4 1.6 79 1.3 W 19 24 10 13 1023.9 1024.1 0.0
26/10:30pm 5.6 0.3 1.7 76 1.6 W 19 26 10 14 1023.6 1023.8 0.0
26/10:00pm 5.8 0.8 1.5 74 1.7 W 17 24 9 13 1023.3 1023.5 0.0
26/09:30pm 5.0 0.7 1.1 76 1.5 W 13 17 7 9 1022.8 1023.1 0.0
26/09:00pm 4.7 0.8 1.0 77 1.4 W 11 15 6 8 1022.5 1022.8 0.0
26/08:30pm 5.6 0.9 1.2 73 1.8 W 15 20 8 11 1022.3 1022.6 0.0
26/08:00pm 6.3 1.6 1.2 70 2.0 W 15 20 8 11 1021.9 1022.2 0.0
26/07:30pm 6.7 2.8 1.4 69 2.1 WNW 11 17 6 9 1021.4 1021.7 0.0
26/07:00pm 7.3 2.7 1.4 66 2.4 WNW 15 20 8 11 1020.9 1021.2 0.0
26/06:30pm 6.9 3.1 1.6 69 2.2 WNW 11 17 6 9 1020.3 1020.6 0.0
26/06:00pm 8.0 3.4 1.8 65 2.6 W 15 24 8 13 1020.1 1020.4 0.0
26/05:30pm 8.0 3.8 1.4 63 2.7 W 13 19 7 10 1019.5 1019.8 0.0
26/05:00pm 8.7 3.3 1.4 60 3.0 W 19 28 10 15 1019.1 1019.4 0.0
26/04:30pm 9.4 3.0 0.8 55 3.5 W 24 35 13 19 1018.6 1018.9 0.0
26/04:00pm 9.7 2.2 1.1 55 3.6 W 30 39 16 21 1018.2 1018.4 0.0
26/03:30pm 11.0 3.6 2.1 54 3.8 W 30 43 16 23 1017.9 1018.1 0.0
26/03:00pm 11.4 4.1 2.7 55 3.8 W 30 44 16 24 1017.5 1017.7 0.0
26/02:30pm 11.2 3.4 1.7 52 4.0 W 32 46 17 25 1017.3 1017.5 0.0
26/02:00pm 11.5 3.6 2.5 54 3.9 W 33 48 18 26 1017.0 1017.2 0.0
26/01:30pm 11.1 3.3 2.9 57 3.6 W 33 46 18 25 1016.8 1017.0 0.0
26/01:00pm 10.2 2.8 2.1 57 3.4 W 30 44 16 24 1016.8 1017.0 0.0
26/12:30pm 11.1 3.2 2.4 55 3.8 W 33 46 18 25 1016.9 1017.1 0.0
26/12:00pm 11.2 4.6 4.0 61 3.2 W 28 43 15 23 1017.1 1017.3 0.0
26/11:30am 10.3 3.1 2.9 60 3.2 W 30 44 16 24 1017.4 1017.6 0.0
26/11:00am 10.3 3.2 3.6 63 2.9 W 30 39 16 21 1017.5 1017.7 0.0
26/10:30am 10.3 3.4 4.5 67 2.6 W 30 41 16 22 1017.4 1017.6 0.0
26/10:20am 10.0 3.4 4.2 67 2.6 W 28 48 15 26 1017.3 1017.5 0.0
26/10:00am 9.5 4.6 5.1 74 2.0 W 20 37 11 20 1016.9 1017.1 0.0
26/09:30am 9.2 4.1 5.9 80 1.5 WNW 22 32 12 17 1016.7 1016.9 0.0
26/09:00am 9.5 4.8 5.9 78 1.7 WNW 20 37 11 20 1016.5 1016.7 1.0
26/08:30am 9.0 4.5 6.1 82 1.3 WNW 19 26 10 14 1016.1 1016.3 1.0
26/08:00am 8.7 4.9 5.8 82 1.3 WNW 15 22 8 12 1015.5 1015.7 1.0
26/07:30am 8.5 4.4 6.3 86 1.0 WNW 17 22 9 12 1015.1 1015.3 1.0
26/07:00am 8.5 5.0 7.3 92 0.6 WNW 15 24 8 13 1015.0 1015.2 1.0
26/06:30am 8.6 3.1 7.4 92 0.6 W 26 39 14 21 1014.5 1014.8 0.8
26/06:00am 9.0 4.8 7.5 90 0.7 NW 19 28 10 15 1013.8 1014.1 0.8
26/05:30am 8.9 4.7 7.5 91 0.7 NNW 19 26 10 14 1013.6 1013.9 0.8
26/05:00am 8.8 4.5 7.7 93 0.5 NW 20 33 11 18 1013.6 1013.9 0.6
26/04:30am 8.8 4.3 6.3 84 1.2 NNW 19 24 10 13 1013.5 1013.8 0.2
26/04:00am 8.8 4.1 6.1 83 1.2 N 20 26 11 14 1013.3 1013.6 0.0
26/03:30am 9.5 3.5 5.3 75 1.9 NNW 26 33 14 18 1013.6 1013.9 0.0
26/03:00am 9.7 3.7 5.1 73 2.1 N 26 33 14 18 1013.7 1014.0 0.0
26/02:30am 10.0 3.9 5.0 71 2.3 N 26 35 14 19 1014.3 1014.6 0.0
26/02:00am 9.9 5.0 5.3 73 2.1 N 20 28 11 15 1014.8 1015.1 0.0
26/01:30am 9.6 5.0 5.4 75 1.9 N 19 26 10 14 1015.0 1015.2 0.0
26/01:00am 9.2 5.4 5.9 80 1.5 N 15 20 8 11 1015.2 1015.4 0.0
26/12:30am 9.1 4.6 6.0 81 1.4 N 19 24 10 13 1015.6 1015.8 0.0
26/12:00am 9.1 4.4 6.2 82 1.3 N 20 28 11 15 1015.6 1015.8 0.0
 
Date/Time
EST
Temp
°C
App
Temp
°C
Dew
Point
Rel
Hum
%
Delta-T
°C
Wind Press
QNH
hPa
Press
MSL
hPa
Rain
since 9 am
mm
Dir
 
Spd
km/h
Gust
km/h
Spd
kts
Gust
kts
25/11:30pm 8.7 4.2 6.3 85 1.1 N 19 26 10 14 1016.1 1016.3 0.0

Other Formats:

Comma delimited format used in spreadsheet applications
http://www.bom.gov.au/fwo/IDN60801/IDN60801.94862.axf

JavaScript Object Notation format (JSON) in row-major order
http://www.bom.gov.au/fwo/IDN60801/IDN60801.94862.json